createdAt,value
2019-05-25T00:02:20.461Z,94269.98
2019-05-25T00:04:49.848Z,94274.59
2019-05-25T00:07:19.219Z,94260.43
2019-05-25T00:09:48.737Z,94273.69
2019-05-25T00:12:18.072Z,94266.16
2019-05-25T00:14:47.462Z,94275.10
2019-05-25T00:17:16.841Z,94264.75
2019-05-25T00:19:46.190Z,94260.53
2019-05-25T00:22:15.535Z,94271.18
2019-05-25T00:24:44.908Z,94272.28
2019-05-25T00:27:14.311Z,94281.94
2019-05-25T00:29:43.668Z,94283.04
2019-05-25T00:32:13.034Z,94284.14
2019-05-25T00:34:42.502Z,94290.77
2019-05-25T00:37:12.005Z,94285.55
2019-05-25T00:39:41.369Z,94287.36
2019-05-25T00:42:10.772Z,94291.08
2019-05-25T00:44:40.149Z,94289.88
2019-05-25T00:47:09.496Z,94286.85
2019-05-25T00:49:38.926Z,94290.88
2019-05-25T00:52:08.301Z,94305.75
2019-05-25T00:54:37.652Z,94305.06
2019-05-25T00:57:07.016Z,94306.16
2019-05-25T00:59:36.362Z,94302.25
2019-05-25T01:02:05.705Z,94300.63
2019-05-25T01:04:35.074Z,94295.99
2019-05-25T01:07:04.497Z,94302.73
2019-05-25T01:09:33.845Z,94297.71
2019-05-25T01:12:03.202Z,94301.53
2019-05-25T01:14:32.572Z,94305.55
2019-05-25T01:17:01.976Z,94302.11
2019-05-25T01:19:31.368Z,94304.62
2019-05-25T01:22:00.702Z,94295.38
2019-05-25T01:24:43.353Z,94296.30
2019-05-25T01:27:01.246Z,94306.34
2019-05-25T01:29:30.625Z,94293.28
2019-05-25T01:32:00.027Z,94292.28
2019-05-25T01:34:29.371Z,94297.67
2019-05-25T01:36:58.725Z,94296.58
2019-05-25T01:39:28.097Z,94304.92
2019-05-25T01:41:57.456Z,94303.41
2019-05-25T01:44:26.796Z,94300.19
2019-05-25T01:46:56.197Z,94292.28
2019-05-25T01:49:25.571Z,94294.69
2019-05-25T01:51:54.899Z,94295.98
2019-05-25T01:54:24.246Z,94300.22
2019-05-25T01:56:53.658Z,94291.77
2019-05-25T01:59:23.051Z,94296.20
2019-05-25T02:01:52.410Z,94293.07
2019-05-25T02:04:22.887Z,94291.08
2019-05-25T02:06:52.262Z,94301.01
2019-05-25T02:09:21.613Z,94297.61
2019-05-25T02:11:50.993Z,94287.33
2019-05-25T02:14:20.416Z,94298.50
2019-05-25T02:16:49.796Z,94293.07
2019-05-25T02:19:19.169Z,94296.30
2019-05-25T02:21:48.519Z,94293.59
2019-05-25T02:24:17.892Z,94296.69
2019-05-25T02:26:47.388Z,94300.80
2019-05-25T02:29:16.728Z,94299.19
2019-05-25T02:31:46.085Z,94296.09
2019-05-25T02:34:15.465Z,94304.14
2019-05-25T02:36:44.873Z,94304.45
2019-05-25T02:39:14.222Z,94305.23
2019-05-25T02:41:43.609Z,94301.63
2019-05-25T02:44:12.959Z,94303.86
2019-05-25T02:46:42.340Z,94301.73
2019-05-25T02:49:11.712Z,94300.52
2019-05-25T02:51:41.062Z,94300.94
2019-05-25T02:54:10.423Z,94300.73
2019-05-25T02:56:39.837Z,94303.45
2019-05-25T02:59:09.171Z,94304.75
2019-05-25T03:01:38.547Z,94306.67
2019-05-25T03:04:07.935Z,94307.56
2019-05-25T03:06:37.908Z,94308.59
2019-05-25T03:09:08.049Z,94305.88
2019-05-25T03:11:40.171Z,94312.20
2019-05-25T03:14:09.508Z,94315.63
2019-05-25T03:16:38.877Z,94314.81
2019-05-25T03:19:08.235Z,94315.53
2019-05-25T03:21:37.593Z,94320.34
2019-05-25T03:24:06.932Z,94317.34
2019-05-25T03:26:36.301Z,94319.73
2019-05-25T03:29:05.665Z,94317.23
2019-05-25T03:31:35.019Z,94318.43
2019-05-25T03:34:04.490Z,94322.86
2019-05-25T03:36:33.846Z,94326.08
2019-05-25T03:39:03.365Z,94337.25
2019-05-25T03:41:32.701Z,94331.39
2019-05-25T03:44:02.121Z,94332.39
2019-05-25T03:46:31.515Z,94332.39
2019-05-25T03:49:00.867Z,94338.13
2019-05-25T03:51:30.270Z,94334.92
2019-05-25T03:53:59.651Z,94346.17
2019-05-25T03:56:29.002Z,94346.89
2019-05-25T03:58:58.388Z,94343.38
2019-05-25T04:01:27.770Z,94343.38
2019-05-25T04:03:57.162Z,94346.08
2019-05-25T04:06:26.604Z,94338.43
2019-05-25T04:08:55.973Z,94341.65
2019-05-25T04:11:25.331Z,94338.64
2019-05-25T04:13:54.704Z,94349.69
2019-05-25T04:16:24.054Z,94348.28
2019-05-25T04:18:53.441Z,94354.82
2019-05-25T04:21:22.802Z,94344.75
2019-05-25T04:23:52.146Z,94348.09
2019-05-25T04:26:22.791Z,94356.24
2019-05-25T04:28:52.441Z,94353.82
2019-05-25T04:31:21.792Z,94347.58
2019-05-25T04:33:51.141Z,94347.58
2019-05-25T04:36:20.515Z,94354.00
2019-05-25T04:38:49.963Z,94360.15
2019-05-25T04:41:19.354Z,94356.03
2019-05-25T04:43:48.721Z,94360.05
2019-05-25T04:46:21.446Z,94359.26
2019-05-25T04:48:49.179Z,94356.11
2019-05-25T04:51:18.579Z,94355.78
2019-05-25T04:53:47.928Z,94351.34
2019-05-25T04:56:17.366Z,94352.53
2019-05-25T04:58:46.837Z,94367.56
2019-05-25T05:01:16.179Z,94371.30
2019-05-25T05:03:45.635Z,94362.52
2019-05-25T05:06:15.009Z,94361.91
2019-05-25T05:08:44.390Z,94361.91
2019-05-25T05:11:14.031Z,94365.20
2019-05-25T05:13:43.415Z,94364.26
2019-05-25T05:16:12.808Z,94392.17
2019-05-25T05:18:42.169Z,94385.67
2019-05-25T05:21:11.570Z,94377.84
2019-05-25T05:23:40.907Z,94388.59
2019-05-25T05:26:10.289Z,94394.39
2019-05-25T05:28:39.724Z,94394.39
2019-05-25T05:31:22.643Z,94395.89
2019-05-25T05:33:40.171Z,94388.83
2019-05-25T05:36:10.593Z,94386.75
2019-05-25T05:38:40.477Z,94385.80
2019-05-25T05:41:10.635Z,94409.38
2019-05-25T05:43:41.716Z,94389.95
2019-05-25T05:46:12.693Z,94384.97
2019-05-25T05:48:43.137Z,94388.69
2019-05-25T05:51:15.037Z,94389.59
2019-05-25T05:53:46.889Z,94386.66
2019-05-25T05:56:16.264Z,94401.61
2019-05-25T05:58:45.630Z,94399.73
2019-05-25T06:01:15.036Z,94408.75
2019-05-25T06:03:44.368Z,94404.00
2019-05-25T06:06:13.765Z,94407.94
2019-05-25T06:08:43.122Z,94406.59
2019-05-25T06:11:12.533Z,94405.63
2019-05-25T06:13:41.915Z,94399.66
2019-05-25T06:16:11.328Z,94404.20
2019-05-25T06:18:40.719Z,94404.66
2019-05-25T06:21:10.066Z,94423.60
2019-05-25T06:23:39.442Z,94418.67
2019-05-25T06:26:08.854Z,94413.94
2019-05-25T06:28:38.190Z,94438.85
2019-05-25T06:31:07.563Z,94426.41
2019-05-25T06:33:36.933Z,94425.36
2019-05-25T06:36:06.315Z,94415.89
2019-05-25T06:38:35.691Z,94419.03
2019-05-25T06:41:08.780Z,94421.65
2019-05-25T06:43:38.323Z,94412.09
2019-05-25T06:46:07.829Z,94413.14
2019-05-25T06:48:37.177Z,94418.78
2019-05-25T06:51:06.562Z,94406.24
2019-05-25T06:53:35.881Z,94404.99
2019-05-25T06:56:05.384Z,94413.47
2019-05-25T06:58:35.979Z,94421.81
2019-05-25T07:01:05.389Z,94411.95
2019-05-25T07:03:36.616Z,94406.84
2019-05-25T07:06:06.034Z,94413.35
2019-05-25T07:08:35.364Z,94432.72
2019-05-25T07:11:04.838Z,94426.00
2019-05-25T07:13:34.268Z,94411.05
2019-05-25T07:16:03.659Z,94419.66
2019-05-25T07:18:35.430Z,94421.22
2019-05-25T07:21:04.095Z,94424.91
2019-05-25T07:23:35.648Z,94437.37
2019-05-25T07:26:05.077Z,94427.02
2019-05-25T07:28:34.570Z,94426.82
2019-05-25T07:31:03.950Z,94449.09
2019-05-25T07:33:33.305Z,94428.66
2019-05-25T07:36:07.294Z,94432.61
2019-05-25T07:38:34.682Z,94419.05
2019-05-25T07:41:04.040Z,94430.61
2019-05-25T07:43:33.377Z,94436.22
2019-05-25T07:46:02.755Z,94439.56
2019-05-25T07:48:32.213Z,94436.16
2019-05-25T07:51:01.552Z,94440.92
2019-05-25T07:53:30.910Z,94438.52
2019-05-25T07:56:00.361Z,94441.48
2019-05-25T07:58:29.749Z,94432.83
2019-05-25T08:00:59.172Z,94450.20
2019-05-25T08:03:28.525Z,94453.03
2019-05-25T08:05:57.925Z,94447.59
2019-05-25T08:08:27.350Z,94469.12
2019-05-25T08:10:56.699Z,94473.20
2019-05-25T08:13:26.055Z,94457.08
2019-05-25T08:15:55.452Z,94458.25
2019-05-25T08:18:24.845Z,94459.16
2019-05-25T08:20:54.223Z,94465.28
2019-05-25T08:23:23.880Z,94456.38
2019-05-25T08:25:53.300Z,94453.75
2019-05-25T08:28:32.647Z,94472.30
2019-05-25T08:30:56.009Z,94466.54
2019-05-25T08:33:25.371Z,94460.55
2019-05-25T08:35:54.736Z,94458.35
2019-05-25T08:38:24.169Z,94463.97
2019-05-25T08:40:53.596Z,94484.42
2019-05-25T08:43:22.914Z,94477.84
2019-05-25T08:45:52.303Z,94475.30
2019-05-25T08:48:21.764Z,94485.01
2019-05-25T08:50:51.101Z,94486.99
2019-05-25T08:53:31.178Z,94484.80
2019-05-25T08:55:51.668Z,94485.96
2019-05-25T08:58:21.210Z,94485.81
2019-05-25T09:00:50.652Z,94497.20
2019-05-25T09:03:20.073Z,94489.31
2019-05-25T09:05:49.472Z,94492.53
2019-05-25T09:08:18.879Z,94487.34
2019-05-25T09:10:48.305Z,94494.80
2019-05-25T09:13:17.680Z,94491.81
2019-05-25T09:15:47.223Z,94489.04
2019-05-25T09:18:16.789Z,94488.55
2019-05-25T09:20:46.131Z,94486.47
2019-05-25T09:23:15.496Z,94501.57
2019-05-25T09:25:44.885Z,94485.13
2019-05-25T09:28:14.274Z,94491.95
2019-05-25T09:30:43.659Z,94490.36
2019-05-25T09:33:13.002Z,94490.19
2019-05-25T09:35:42.378Z,94490.30
2019-05-25T09:38:11.802Z,94494.46
2019-05-25T09:40:41.184Z,94492.18
2019-05-25T09:43:10.521Z,94493.77
2019-05-25T09:45:39.907Z,94491.23
2019-05-25T09:48:09.322Z,94480.11
2019-05-25T09:50:39.027Z,94480.95
2019-05-25T09:53:08.387Z,94500.98
2019-05-25T09:55:37.766Z,94494.27
2019-05-25T09:58:07.149Z,94509.25
2019-05-25T10:00:40.055Z,94512.48
2019-05-25T10:03:07.590Z,94531.53
2019-05-25T10:05:36.937Z,94519.17
2019-05-25T10:08:06.444Z,94515.88
2019-05-25T10:10:35.826Z,94517.91
2019-05-25T10:13:05.357Z,94516.23
2019-05-25T10:15:34.695Z,94518.41
2019-05-25T10:18:04.169Z,94508.33
2019-05-25T10:20:33.611Z,94508.33
2019-05-25T10:23:02.952Z,94496.59
2019-05-25T10:25:32.323Z,94510.27
2019-05-25T10:28:01.706Z,94504.44
2019-05-25T10:30:32.578Z,94500.45
2019-05-25T10:33:01.939Z,94503.36
2019-05-25T10:35:31.371Z,94496.17
2019-05-25T10:38:00.717Z,94493.28
2019-05-25T10:40:30.090Z,94499.50
2019-05-25T10:42:59.482Z,94498.31
2019-05-25T10:45:28.830Z,94499.80
2019-05-25T10:47:58.253Z,94486.89
2019-05-25T10:50:27.634Z,94473.11
2019-05-25T10:52:56.990Z,94483.75
2019-05-25T10:55:26.545Z,94482.80
2019-05-25T10:57:55.928Z,94481.39
2019-05-25T11:00:25.684Z,94472.70
2019-05-25T11:02:55.068Z,94475.45
2019-05-25T11:05:24.530Z,94465.77
2019-05-25T11:07:53.887Z,94462.80
2019-05-25T11:10:23.365Z,94461.02
2019-05-25T11:12:52.859Z,94477.56
2019-05-25T11:15:22.181Z,94473.55
2019-05-25T11:17:51.694Z,94476.97
2019-05-25T11:20:22.097Z,94486.44
2019-05-25T11:22:51.438Z,94489.02
2019-05-25T11:25:20.929Z,94475.68
2019-05-25T11:27:50.281Z,94477.11
2019-05-25T11:30:19.782Z,94483.16
2019-05-25T11:32:49.115Z,94493.92
2019-05-25T11:35:18.847Z,94502.65
2019-05-25T11:37:48.245Z,94487.27
2019-05-25T11:40:17.906Z,94491.22
2019-05-25T11:42:47.291Z,94507.38
2019-05-25T11:45:17.547Z,94502.03
2019-05-25T11:47:46.888Z,94489.89
2019-05-25T11:50:16.558Z,94496.00
2019-05-25T11:52:46.033Z,94508.44
2019-05-25T11:55:15.764Z,94498.95
2019-05-25T11:57:45.126Z,94495.79
2019-05-25T12:00:25.085Z,94501.87
2019-05-25T12:02:46.709Z,94500.27
2019-05-25T12:05:18.107Z,94495.16
2019-05-25T12:07:47.168Z,94492.59
2019-05-25T12:10:16.866Z,94481.30
2019-05-25T12:12:49.038Z,94501.85
2019-05-25T12:15:18.922Z,94487.66
2019-05-25T12:17:49.468Z,94496.34
2019-05-25T12:20:22.551Z,94493.96
2019-05-25T12:22:51.908Z,94481.38
2019-05-25T12:25:21.284Z,94480.20
2019-05-25T12:27:50.646Z,94480.50
2019-05-25T12:30:20.704Z,94462.68
2019-05-25T12:32:50.084Z,94474.83
2019-05-25T12:35:19.721Z,94476.33
2019-05-25T12:37:49.082Z,94471.03
2019-05-25T12:40:19.827Z,94482.42
2019-05-25T12:42:49.208Z,94475.01
2019-05-25T12:45:18.782Z,94475.14
2019-05-25T12:47:50.887Z,94471.70
2019-05-25T12:50:21.636Z,94484.03
2019-05-25T12:52:52.220Z,94459.23
2019-05-25T12:55:24.260Z,94500.30
2019-05-25T12:57:53.655Z,94501.17
2019-05-25T13:00:23.229Z,94480.01
2019-05-25T13:02:52.731Z,94480.72
2019-05-25T13:05:33.659Z,94479.39
2019-05-25T13:07:53.118Z,94489.12
2019-05-25T13:10:22.479Z,94480.38
2019-05-25T13:12:51.882Z,94486.41
2019-05-25T13:15:21.332Z,94477.16
2019-05-25T13:17:50.717Z,94471.98
2019-05-25T13:20:20.129Z,94481.79
2019-05-25T13:22:49.459Z,94468.41
2019-05-25T13:25:18.810Z,94477.39
2019-05-25T13:27:48.197Z,94457.46
2019-05-25T13:30:18.597Z,94462.02
2019-05-25T13:32:47.973Z,94471.61
2019-05-25T13:35:17.304Z,94460.70
2019-05-25T13:37:46.651Z,94458.39
2019-05-25T13:40:16.021Z,94467.30
2019-05-25T13:42:45.416Z,94483.80
2019-05-25T13:45:14.947Z,94461.04
2019-05-25T13:47:44.361Z,94454.94
2019-05-25T13:50:14.262Z,94452.44
2019-05-25T13:52:43.638Z,94454.00
2019-05-25T13:55:13.606Z,94467.16
2019-05-25T13:57:42.980Z,94455.79
2019-05-25T14:00:13.434Z,94458.41
2019-05-25T14:02:42.785Z,94458.73
2019-05-25T14:05:12.266Z,94451.84
2019-05-25T14:07:41.655Z,94453.80
2019-05-25T14:10:11.319Z,94453.29
2019-05-25T14:12:40.719Z,94458.08
2019-05-25T14:15:10.423Z,94458.33
2019-05-25T14:17:39.744Z,94454.23
2019-05-25T14:20:09.208Z,94442.06
2019-05-25T14:22:38.622Z,94459.23
2019-05-25T14:25:08.268Z,94450.89
2019-05-25T14:27:37.657Z,94462.83
2019-05-25T14:30:07.951Z,94454.31
2019-05-25T14:32:37.305Z,94455.22
2019-05-25T14:35:07.218Z,94447.59
2019-05-25T14:37:36.790Z,94482.27
2019-05-25T14:40:10.491Z,94453.37
2019-05-25T14:42:38.324Z,94457.58
2019-05-25T14:45:07.799Z,94450.69
2019-05-25T14:47:37.171Z,94462.88
2019-05-25T14:50:06.650Z,94457.22
2019-05-25T14:52:36.080Z,94442.17
2019-05-25T14:55:05.850Z,94450.48
2019-05-25T14:57:35.216Z,94446.44
2019-05-25T15:00:05.025Z,94455.09
2019-05-25T15:02:34.469Z,94443.47
2019-05-25T15:05:03.922Z,94449.36
2019-05-25T15:07:33.311Z,94450.42
2019-05-25T15:10:03.685Z,94453.78
2019-05-25T15:12:33.063Z,94448.45
2019-05-25T15:15:02.459Z,94442.61
2019-05-25T15:17:32.149Z,94443.05
2019-05-25T15:20:01.514Z,94446.28
2019-05-25T15:22:32.377Z,94437.72
2019-05-25T15:25:01.721Z,94442.22
2019-05-25T15:27:31.205Z,94442.90
2019-05-25T15:30:00.537Z,94446.95
2019-05-25T15:32:30.286Z,94449.08
2019-05-25T15:34:59.648Z,94450.27
2019-05-25T15:37:29.037Z,94452.54
2019-05-25T15:39:58.435Z,94458.23
2019-05-25T15:42:27.918Z,94455.70
2019-05-25T15:44:57.670Z,94440.66
2019-05-25T15:47:27.008Z,94447.09
2019-05-25T15:49:56.398Z,94444.16
2019-05-25T15:52:26.035Z,94449.21
2019-05-25T15:54:55.398Z,94444.70
2019-05-25T15:57:24.793Z,94450.47
2019-05-25T15:59:54.173Z,94454.63
2019-05-25T16:02:36.174Z,94453.66
2019-05-25T16:04:54.834Z,94458.14
2019-05-25T16:07:24.245Z,94476.33
2019-05-25T16:09:53.658Z,94475.37
2019-05-25T16:12:23.062Z,94470.03
2019-05-25T16:14:52.803Z,94473.04
2019-05-25T16:17:22.216Z,94454.48
2019-05-25T16:19:51.634Z,94468.28
2019-05-25T16:22:21.064Z,94470.30
2019-05-25T16:24:50.549Z,94476.98
2019-05-25T16:27:20.585Z,94478.30
2019-05-25T16:29:50.066Z,94494.14
2019-05-25T16:32:19.471Z,94491.84
2019-05-25T16:34:48.977Z,94486.76
2019-05-25T16:37:18.781Z,94485.97
2019-05-25T16:39:48.510Z,94488.76
2019-05-25T16:42:17.913Z,94486.59
2019-05-25T16:44:47.326Z,94477.32
2019-05-25T16:47:16.672Z,94490.79
2019-05-25T16:49:46.078Z,94489.23
2019-05-25T16:52:15.478Z,94498.86
2019-05-25T16:54:44.835Z,94492.05
2019-05-25T16:57:14.245Z,94485.97
2019-05-25T16:59:43.635Z,94501.60
2019-05-25T17:02:13.046Z,94495.06
2019-05-25T17:04:42.982Z,94490.68
2019-05-25T17:07:12.352Z,94490.37
2019-05-25T17:09:42.149Z,94497.73
2019-05-25T17:12:11.964Z,94496.04
2019-05-25T17:14:41.441Z,94504.69
2019-05-25T17:17:10.950Z,94516.79
2019-05-25T17:19:40.554Z,94518.70
2019-05-25T17:22:09.944Z,94514.66
2019-05-25T17:24:39.347Z,94509.41
2019-05-25T17:27:08.689Z,94515.27
2019-05-25T17:29:38.865Z,94509.08
2019-05-25T17:32:08.369Z,94506.33
2019-05-25T17:34:37.922Z,94507.35
2019-05-25T17:37:07.294Z,94512.97
2019-05-25T17:39:36.851Z,94508.79
2019-05-25T17:42:06.306Z,94516.02
2019-05-25T17:47:10.362Z,94520.64
2019-05-25T17:52:16.157Z,94531.39
2019-05-25T17:54:45.591Z,94525.74
2019-05-25T17:57:14.961Z,94529.00
2019-05-25T17:59:44.342Z,94530.78
2019-05-25T18:02:13.842Z,94536.20
2019-05-25T18:04:43.197Z,94530.67
2019-05-25T18:07:12.584Z,94534.61
2019-05-25T18:09:41.965Z,94534.33
2019-05-25T18:12:11.386Z,94530.23
2019-05-25T18:14:40.734Z,94526.91
2019-05-25T18:17:10.129Z,94529.40
2019-05-25T18:19:39.495Z,94530.38
2019-05-25T18:22:08.903Z,94533.35
2019-05-25T18:24:38.543Z,94536.13
2019-05-25T18:27:07.897Z,94537.59
2019-05-25T18:29:37.298Z,94540.50
2019-05-25T18:32:06.724Z,94544.81
2019-05-25T18:34:36.117Z,94542.53
2019-05-25T18:37:05.769Z,94544.89
2019-05-25T18:39:35.103Z,94550.19
2019-05-25T18:42:04.663Z,94554.57
2019-05-25T18:44:34.095Z,94564.99
2019-05-25T18:47:03.522Z,94560.59
2019-05-25T18:49:32.941Z,94559.51
2019-05-25T18:52:02.320Z,94567.58
2019-05-25T18:54:31.687Z,94568.88
2019-05-25T18:57:05.413Z,94566.87
2019-05-25T18:59:32.140Z,94567.70
2019-05-25T19:02:04.625Z,94573.45
2019-05-25T19:04:45.619Z,94574.34
2019-05-25T19:07:05.370Z,94586.95
2019-05-25T19:09:34.834Z,94592.38
2019-05-25T19:12:04.386Z,94589.52
2019-05-25T19:14:33.784Z,94594.44
2019-05-25T19:17:03.197Z,94595.06
2019-05-25T19:19:32.515Z,94592.78
2019-05-25T19:22:04.066Z,94592.27
2019-05-25T19:24:33.056Z,94600.05
2019-05-25T19:27:02.431Z,94603.02
2019-05-25T19:29:31.811Z,94605.59
2019-05-25T19:32:01.550Z,94614.56
2019-05-25T19:34:30.887Z,94604.77
2019-05-25T19:37:03.547Z,94607.44
2019-05-25T19:39:31.391Z,94606.66
2019-05-25T19:42:00.778Z,94613.86
2019-05-25T19:44:30.152Z,94609.92
2019-05-25T19:46:59.520Z,94610.66
2019-05-25T19:49:28.884Z,94618.58
2019-05-25T19:51:58.282Z,94621.91
2019-05-25T19:54:27.651Z,94611.63
2019-05-25T19:56:56.995Z,94614.73
2019-05-25T19:59:26.404Z,94621.08
2019-05-25T20:01:55.906Z,94625.23
2019-05-25T20:04:25.251Z,94625.45
2019-05-25T20:06:54.673Z,94622.95
2019-05-25T20:09:24.049Z,94629.93
2019-05-25T20:11:53.847Z,94631.21
2019-05-25T20:14:23.270Z,94635.17
2019-05-25T20:16:52.656Z,94633.74
2019-05-25T20:19:21.980Z,94637.40
2019-05-25T20:21:51.447Z,94640.66
2019-05-25T20:24:20.783Z,94649.75
2019-05-25T20:26:50.225Z,94655.77
2019-05-25T20:29:19.572Z,94652.16
2019-05-25T20:31:48.989Z,94653.17
2019-05-25T20:34:18.361Z,94656.16
2019-05-25T20:36:47.718Z,94655.58
2019-05-25T20:39:17.083Z,94653.88
2019-05-25T20:41:46.476Z,94650.69
2019-05-25T20:44:15.814Z,94647.49
2019-05-25T20:46:45.321Z,94648.41
2019-05-25T20:49:14.749Z,94643.95
2019-05-25T20:51:44.411Z,94648.05
2019-05-25T20:54:13.768Z,94640.97
2019-05-25T20:56:43.184Z,94648.26
2019-05-25T20:59:13.561Z,94650.12
2019-05-25T21:01:43.000Z,94647.28
2019-05-25T21:04:12.351Z,94649.57
2019-05-25T21:06:41.732Z,94648.88
2019-05-25T21:09:11.134Z,94652.02
2019-05-25T21:11:40.574Z,94650.97
2019-05-25T21:14:09.926Z,94647.86
2019-05-25T21:16:39.338Z,94653.81
2019-05-25T21:19:08.691Z,94655.24
2019-05-25T21:21:38.122Z,94656.27
2019-05-25T21:24:07.529Z,94652.40
2019-05-25T21:26:36.986Z,94657.03
2019-05-25T21:29:06.345Z,94661.88
2019-05-25T21:31:35.741Z,94662.27
2019-05-25T21:34:05.064Z,94666.01
2019-05-25T21:36:34.518Z,94664.27
2019-05-25T21:39:04.696Z,94665.70
2019-05-25T21:41:34.067Z,94667.90
2019-05-25T21:44:03.409Z,94667.80
2019-05-25T21:46:32.808Z,94669.42
2019-05-25T21:49:02.166Z,94672.66
2019-05-25T21:51:31.580Z,94676.58
2019-05-25T21:54:00.939Z,94672.42
2019-05-25T21:56:30.332Z,94672.42
2019-05-25T21:58:59.667Z,94676.36
2019-05-25T22:01:29.139Z,94670.63
2019-05-25T22:03:58.536Z,94679.59
2019-05-25T22:06:27.929Z,94678.28
2019-05-25T22:08:57.296Z,94684.80
2019-05-25T22:11:26.672Z,94684.80
2019-05-25T22:13:55.996Z,94682.66
2019-05-25T22:16:25.434Z,94682.66
2019-05-25T22:18:54.774Z,94688.86
2019-05-25T22:21:24.157Z,94690.43
2019-05-25T22:23:53.531Z,94686.23
2019-05-25T22:26:22.932Z,94688.21
2019-05-25T22:28:52.287Z,94685.21
2019-05-25T22:31:21.742Z,94685.21
2019-05-25T22:33:51.086Z,94692.92
2019-05-25T22:36:20.506Z,94693.38
2019-05-25T22:38:49.932Z,94689.82
2019-05-25T22:41:20.105Z,94687.03
2019-05-25T22:43:49.632Z,94682.70
2019-05-25T22:46:19.060Z,94687.08
2019-05-25T22:48:48.416Z,94690.37
2019-05-25T22:51:17.827Z,94685.19
2019-05-25T22:53:47.186Z,94683.33
2019-05-25T22:56:16.587Z,94687.69
2019-05-25T22:58:45.940Z,94691.72
2019-05-25T23:01:15.329Z,94696.23
2019-05-25T23:03:44.673Z,94698.28
2019-05-25T23:06:14.062Z,94698.64
2019-05-25T23:08:43.448Z,94700.14
2019-05-25T23:11:12.849Z,94697.17
2019-05-25T23:13:42.235Z,94701.16
2019-05-25T23:16:14.158Z,94698.73
2019-05-25T23:18:43.564Z,94697.79
2019-05-25T23:21:12.884Z,94699.53
2019-05-25T23:23:42.236Z,94697.64
2019-05-25T23:26:11.599Z,94700.91
2019-05-25T23:28:40.947Z,94702.61
2019-05-25T23:31:10.312Z,94706.46
2019-05-25T23:33:39.667Z,94707.39
2019-05-25T23:36:09.041Z,94701.50
2019-05-25T23:38:38.391Z,94707.28
2019-05-25T23:41:07.777Z,94710.69
2019-05-25T23:43:37.169Z,94708.08
2019-05-25T23:46:06.533Z,94711.04
2019-05-25T23:48:35.927Z,94710.77
2019-05-25T23:51:05.317Z,94707.88
2019-05-25T23:53:34.639Z,94708.23
2019-05-25T23:56:04.010Z,94704.91
2019-05-25T23:58:33.349Z,94702.56
